Time;durP1;ratioP1;P1;durP2;ratioP2;P2;SDS_P1;SDS_P2;PMS_P1;PMS_P2;Temp;Humidity;BMP_temperature;BMP_pressure;BME280_temperature;BME280_humidity;BME280_pressure;Samples;Min_cycle;Max_cycle;Signal;HPM_P1;HPM_P2
2022/05/18 00:00:27;;;;;;;7.05;5.65;;;;;;;17.47;85.10;100876.31;5046624;28;20048;-80
2022/05/18 00:03:03;;;;;;;7.65;5.60;;;;;;;17.43;85.64;100882.00;5049360;28;20041;-83
2022/05/18 00:05:35;;;;;;;7.72;5.40;;;;;;;17.25;86.09;100856.47;5046449;28;20115;-83
2022/05/18 00:08:02;;;;;;;7.13;5.75;;;;;;;17.36;86.42;100875.34;5051438;28;20465;-82
2022/05/18 00:10:29;;;;;;;7.15;5.22;;;;;;;17.25;86.48;100888.59;5042842;28;20140;-82
2022/05/18 00:12:56;;;;;;;10.25;6.05;;;;;;;17.25;86.92;100873.41;5050056;28;20864;-81
2022/05/18 00:15:24;;;;;;;8.65;5.72;;;;;;;17.27;86.75;100889.34;5047004;28;20041;-82
2022/05/18 00:17:52;;;;;;;8.05;5.32;;;;;;;17.23;86.56;100877.13;5051456;28;20051;-81
2022/05/18 00:20:20;;;;;;;8.40;5.07;;;;;;;17.24;86.86;100885.06;5040131;28;20078;-78
2022/05/18 00:22:49;;;;;;;6.03;5.28;;;;;;;17.15;86.92;100867.81;5051268;28;20076;-82
2022/05/18 00:25:17;;;;;;;7.90;6.13;;;;;;;17.14;86.81;100874.13;5046187;28;20108;-82
2022/05/18 00:27:44;;;;;;;9.93;5.82;;;;;;;17.00;87.23;100858.09;5050620;28;20041;-80
2022/05/18 00:30:14;;;;;;;7.13;5.55;;;;;;;17.06;87.27;100871.09;5050848;28;20205;-78
2022/05/18 00:32:41;;;;;;;8.70;5.63;;;;;;;17.08;87.13;100879.00;5045713;28;20075;-81
2022/05/18 00:35:09;;;;;;;9.30;5.43;;;;;;;17.19;87.25;100900.56;5045667;28;20079;-82
2022/05/18 00:37:36;;;;;;;7.80;5.90;;;;;;;17.18;87.12;100899.69;5050295;28;20159;-81
2022/05/18 00:40:05;;;;;;;9.43;6.03;;;;;;;17.25;86.60;100904.66;5040647;28;20731;-79
2022/05/18 00:42:32;;;;;;;9.77;6.18;;;;;;;17.13;86.93;100899.16;5047348;28;20057;-80
2022/05/18 00:44:59;;;;;;;8.30;5.70;;;;;;;17.05;87.74;100892.59;5049846;28;20079;-82
2022/05/18 00:47:28;;;;;;;9.77;5.72;;;;;;;17.03;88.03;100892.69;5047913;28;20396;-81
2022/05/18 00:50:02;;;;;;;7.73;5.50;;;;;;;17.02;87.99;100890.97;5051065;28;20056;-82
2022/05/18 00:52:37;;;;;;;8.18;5.50;;;;;;;16.98;88.08;100891.28;5047260;28;20041;-79
2022/05/18 00:55:08;;;;;;;6.93;5.43;;;;;;;16.93;88.22;100878.22;5045455;28;20120;-78
2022/05/18 00:58:03;;;;;;;7.85;5.72;;;;;;;16.90;88.55;100878.41;5048177;28;20048;-79
2022/05/18 01:00:30;;;;;;;9.80;5.72;;;;;;;16.85;88.74;100883.19;5024335;28;20095;-79
2022/05/18 01:03:08;;;;;;;8.73;5.95;;;;;;;16.81;88.88;100884.38;5053794;28;20397;-82
2022/05/18 01:05:37;;;;;;;10.60;6.82;;;;;;;16.78;89.17;100887.25;5051284;28;20049;-82
2022/05/18 01:08:04;;;;;;;7.57;6.17;;;;;;;16.78;89.04;100879.22;5054805;28;20053;-79
2022/05/18 01:10:31;;;;;;;10.52;6.13;;;;;;;16.75;88.90;100874.91;5052259;28;20735;-82
2022/05/18 01:13:00;;;;;;;8.90;6.05;;;;;;;16.69;89.01;100877.13;5049169;28;20096;-81
2022/05/18 01:15:26;;;;;;;8.32;6.10;;;;;;;16.66;89.80;100888.03;5034855;28;20608;-81
2022/05/18 01:17:58;;;;;;;8.20;5.80;;;;;;;16.60;89.73;100901.75;5051196;28;20057;-80
2022/05/18 01:20:35;;;;;;;10.00;6.53;;;;;;;16.55;89.79;100901.19;5056355;28;20080;-80
2022/05/18 01:23:30;;;;;;;8.05;5.55;;;;;;;16.56;90.54;100902.91;5035549;28;20045;-81
2022/05/18 01:26:19;;;;;;;7.80;6.35;;;;;;;16.60;90.40;100899.94;5046958;28;20065;-81
2022/05/18 01:28:52;;;;;;;13.02;6.70;;;;;;;16.66;89.57;100909.44;5043277;28;20049;-79
2022/05/18 01:31:36;;;;;;;7.55;5.82;;;;;;;16.55;89.68;100880.66;5058141;28;20100;-79
2022/05/18 01:34:03;;;;;;;8.10;6.10;;;;;;;16.53;89.19;100877.22;5053782;28;20071;-81
2022/05/18 01:36:30;;;;;;;7.55;5.82;;;;;;;16.63;88.81;100902.47;5060135;28;20041;-78
2022/05/18 01:38:56;;;;;;;8.63;5.85;;;;;;;16.47;88.93;100882.97;5055140;28;20045;-80
2022/05/18 01:41:26;;;;;;;10.65;6.38;;;;;;;16.61;89.15;100900.81;5051283;28;20405;-81
2022/05/18 01:43:56;;;;;;;9.65;6.15;;;;;;;16.46;89.69;100890.13;5045256;28;20088;-80
2022/05/18 01:46:23;;;;;;;7.93;6.28;;;;;;;16.46;89.67;100900.81;5048893;28;20061;-82
2022/05/18 01:48:52;;;;;;;10.18;6.30;;;;;;;16.45;90.30;100915.16;5052656;28;20124;-80
2022/05/18 01:51:32;;;;;;;7.85;6.00;;;;;;;16.37;90.06;100909.41;5044947;28;20052;-78
2022/05/18 01:53:59;;;;;;;8.05;5.72;;;;;;;16.39;90.63;100920.88;5031645;28;20045;-80
2022/05/18 01:56:26;;;;;;;8.05;5.40;;;;;;;16.40;90.30;100922.59;5052927;28;20045;-81
2022/05/18 01:58:52;;;;;;;10.00;6.40;;;;;;;16.36;89.80;100913.06;5052601;28;20132;-80
2022/05/18 02:01:20;;;;;;;6.32;5.35;;;;;;;16.41;89.42;100916.28;5049065;28;20537;-78
2022/05/18 02:03:48;;;;;;;6.97;5.97;;;;;;;16.37;89.09;100906.72;5052554;28;20049;-79
2022/05/18 02:06:16;;;;;;;8.57;5.90;;;;;;;16.35;89.09;100910.47;5052767;28;20731;-79
2022/05/18 02:08:43;;;;;;;7.93;5.65;;;;;;;16.33;89.46;100915.06;5048015;28;20118;-79
2022/05/18 02:11:20;;;;;;;7.35;5.85;;;;;;;16.35;90.02;100911.34;5053602;28;20077;-78
2022/05/18 02:13:47;;;;;;;9.27;5.80;;;;;;;16.27;89.67;100894.06;5046866;28;20079;-78
2022/05/18 02:16:14;;;;;;;7.93;5.45;;;;;;;16.36;89.77;100904.19;5051468;28;20106;-78
2022/05/18 02:18:41;;;;;;;8.20;6.00;;;;;;;16.34;89.62;100898.94;5049502;28;20045;-80
2022/05/18 02:21:09;;;;;;;7.00;5.55;;;;;;;16.32;89.66;100900.84;5053517;28;20465;-80
2022/05/18 02:23:37;;;;;;;8.27;5.20;;;;;;;16.34;89.27;100903.41;5052605;28;20048;-78
2022/05/18 02:26:07;;;;;;;8.00;5.70;;;;;;;16.31;89.38;100906.28;5053462;28;20094;-79
2022/05/18 02:28:34;;;;;;;9.27;5.97;;;;;;;16.27;89.65;100905.59;5049034;28;20075;-79
2022/05/18 02:31:01;;;;;;;7.22;5.70;;;;;;;16.12;89.82;100893.19;5048621;28;20064;-79
2022/05/18 02:33:27;;;;;;;7.35;5.43;;;;;;;16.17;90.36;100925.84;5050584;28;20044;-79
2022/05/18 02:35:54;;;;;;;7.43;5.55;;;;;;;16.11;90.56;100923.53;5048668;28;20046;-79
2022/05/18 02:38:21;;;;;;;13.18;6.20;;;;;;;16.04;90.98;100931.09;5050347;28;20572;-78
2022/05/18 02:40:47;;;;;;;9.50;5.90;;;;;;;16.02;91.44;100926.78;5046039;28;20148;-79
2022/05/18 02:43:14;;;;;;;6.90;5.40;;;;;;;16.04;91.73;100931.09;5048702;28;20045;-77
2022/05/18 02:45:41;;;;;;;9.13;6.10;;;;;;;15.97;91.43;100918.19;5051296;28;20851;-79
2022/05/18 02:48:08;;;;;;;7.55;5.63;;;;;;;15.74;91.34;100871.53;5048291;28;20048;-78
2022/05/18 02:50:35;;;;;;;8.27;5.75;;;;;;;16.05;91.34;100929.28;5047514;28;20103;-79
2022/05/18 02:53:01;;;;;;;8.13;6.15;;;;;;;16.02;91.03;100927.66;5052007;28;20041;-80
2022/05/18 02:58:13;;;;;;;9.38;6.40;;;;;;;15.75;92.81;100916.81;5047568;28;20072;-78
2022/05/18 03:00:40;;;;;;;8.90;6.43;;;;;;;15.65;93.78;100917.44;5042611;28;20552;-79
2022/05/18 03:03:07;;;;;;;7.75;6.45;;;;;;;15.64;94.48;100923.75;5047918;28;20140;-79
2022/05/18 03:05:33;;;;;;;10.05;6.65;;;;;;;15.64;94.89;100934.41;5047478;28;20049;-80
2022/05/18 03:08:00;;;;;;;10.23;6.97;;;;;;;15.65;94.88;100936.16;5049012;28;20053;-80
2022/05/18 03:10:27;;;;;;;7.93;6.68;;;;;;;15.55;95.04;100927.84;5044336;28;20107;-78
2022/05/18 03:12:53;;;;;;;8.27;7.25;;;;;;;15.54;95.15;100936.75;5039772;28;20133;-79
2022/05/18 03:15:20;;;;;;;7.43;6.50;;;;;;;15.55;95.25;100942.94;5041941;28;20120;-79
2022/05/18 03:17:47;;;;;;;16.02;6.40;;;;;;;15.47;95.86;100923.84;5045624;28;20049;-78
2022/05/18 03:23:33;;;;;;;12.55;6.35;;;;;;;15.62;95.23;100945.19;5046849;28;20107;-79
2022/05/18 03:25:45;;;;;;;8.95;5.82;;;;;;;15.75;94.90;100951.50;5051271;28;20049;-79
2022/05/18 03:28:12;;;;;;;6.88;5.50;;;;;;;15.82;94.11;100946.69;5032940;28;20136;-78
2022/05/18 03:30:39;;;;;;;6.78;5.60;;;;;;;15.86;93.99;100947.38;5050943;28;20072;-79
2022/05/18 03:33:06;;;;;;;9.90;6.13;;;;;;;15.83;93.48;100937.72;5051444;28;20072;-78
2022/05/18 03:35:33;;;;;;;10.52;6.18;;;;;;;15.83;93.37;100952.88;5044079;28;20047;-80
2022/05/18 03:38:00;;;;;;;9.32;6.07;;;;;;;15.73;93.66;100948.09;5046558;28;20076;-79
2022/05/18 03:40:28;;;;;;;10.55;6.45;;;;;;;15.70;94.60;100953.63;5042542;28;20069;-79
2022/05/18 03:42:54;;;;;;;9.23;6.28;;;;;;;15.62;94.40;100957.69;5046959;28;20128;-79
2022/05/18 03:45:21;;;;;;;9.25;6.03;;;;;;;15.57;95.56;100957.97;5050298;28;20417;-79
2022/05/18 03:47:48;;;;;;;8.35;6.20;;;;;;;15.41;95.95;100931.28;5043813;28;20081;-79
2022/05/18 03:50:15;;;;;;;10.70;6.60;;;;;;;15.42;95.86;100932.16;5048257;28;20040;-80
2022/05/18 03:52:42;;;;;;;8.32;6.63;;;;;;;15.61;95.64;100959.47;5032390;28;20110;-79
2022/05/18 03:55:10;;;;;;;8.38;6.43;;;;;;;15.59;95.39;100958.72;5040906;28;20139;-80
2022/05/18 03:57:36;;;;;;;10.23;7.10;;;;;;;15.55;95.02;100961.63;5045922;28;20049;-78
2022/05/18 04:00:06;;;;;;;7.47;6.55;;;;;;;15.52;95.49;100953.81;5045861;28;20052;-80
2022/05/18 04:02:33;;;;;;;8.27;6.45;;;;;;;15.56;94.49;100966.91;5042653;28;20071;-79
2022/05/18 04:05:00;;;;;;;14.02;7.68;;;;;;;15.56;94.59;100976.75;5049581;28;20075;-79
2022/05/18 04:07:27;;;;;;;8.05;6.45;;;;;;;15.41;94.87;100959.78;5049992;28;20537;-80
2022/05/18 04:09:53;;;;;;;8.68;6.53;;;;;;;15.34;94.99;100961.06;5044026;28;20052;-80
2022/05/18 04:12:20;;;;;;;8.43;6.90;;;;;;;15.36;95.54;100980.53;5043657;28;20099;-77
2022/05/18 04:14:50;;;;;;;9.80;7.05;;;;;;;15.30;95.61;100979.06;5040970;28;20045;-78
2022/05/18 04:17:16;;;;;;;10.30;7.63;;;;;;;15.26;96.27;100972.19;5048814;28;20051;-77
2022/05/18 04:19:45;;;;;;;9.05;6.68;;;;;;;15.29;96.99;100968.47;5049971;28;20147;-79
2022/05/18 04:22:12;;;;;;;9.05;6.88;;;;;;;15.34;97.33;100982.41;5031675;28;20069;-78
2022/05/18 04:24:38;;;;;;;10.10;7.07;;;;;;;15.39;97.21;100972.34;5048936;28;20044;-79
2022/05/18 04:27:07;;;;;;;10.80;7.90;;;;;;;15.27;97.30;100960.53;5027345;28;20041;-78
2022/05/18 04:29:34;;;;;;;10.25;7.03;;;;;;;15.43;96.95;100981.88;5050337;28;20083;-80
2022/05/18 04:32:05;;;;;;;7.40;6.60;;;;;;;15.41;96.94;100976.66;5031896;28;20138;-78
2022/05/18 04:34:32;;;;;;;8.57;7.15;;;;;;;15.46;97.00;100971.03;5043151;28;20080;-79
2022/05/18 04:36:59;;;;;;;9.85;7.25;;;;;;;15.61;96.35;100988.00;5042612;28;20088;-79
2022/05/18 04:39:26;;;;;;;11.48;7.22;;;;;;;15.75;95.33;100990.72;5044713;28;20555;-77
2022/05/18 04:41:52;;;;;;;9.32;7.20;;;;;;;15.78;94.81;100988.72;5049219;28;20053;-79
2022/05/18 04:44:19;;;;;;;11.88;7.53;;;;;;;15.84;94.29;100992.00;5045014;28;20460;-79
2022/05/18 04:46:58;;;;;;;10.55;7.28;;;;;;;15.85;94.25;100989.22;5046709;28;20045;-79
2022/05/18 04:49:28;;;;;;;9.50;7.43;;;;;;;15.78;94.08;100978.03;5045048;28;20443;-80
2022/05/18 04:52:00;;;;;;;10.90;6.95;;;;;;;15.90;93.98;100978.28;5046835;28;20784;-79
2022/05/18 04:54:27;;;;;;;10.45;7.15;;;;;;;15.89;93.83;100968.56;5049860;28;20115;-79
2022/05/18 04:56:54;;;;;;;10.23;6.75;;;;;;;16.09;93.79;101003.78;5050990;28;20045;-78
2022/05/18 04:59:22;;;;;;;9.10;7.07;;;;;;;16.09;93.28;101000.25;5048653;28;20477;-78
2022/05/18 05:01:49;;;;;;;9.88;7.22;;;;;;;16.15;93.16;101005.22;5036777;28;20501;-77
2022/05/18 05:04:16;;;;;;;9.50;6.90;;;;;;;16.27;93.06;101011.63;5042951;28;20056;-78
2022/05/18 05:06:45;;;;;;;8.65;6.97;;;;;;;16.37;92.46;101010.16;5048820;28;20084;-80
2022/05/18 05:09:12;;;;;;;10.07;7.15;;;;;;;16.49;91.39;101012.91;5045093;28;20091;-78
2022/05/18 05:11:39;;;;;;;8.70;7.30;;;;;;;16.60;90.45;101003.34;5026832;28;20141;-79
2022/05/18 05:14:06;;;;;;;10.40;7.88;;;;;;;16.67;90.09;101008.28;5048927;28;20088;-79
2022/05/18 05:16:33;;;;;;;11.02;6.88;;;;;;;16.79;nan;101012.00;5047359;28;20083;-78
2022/05/18 05:19:00;;;;;;;10.70;7.55;;;;;;;16.89;88.73;101009.59;5038359;28;20041;-80
2022/05/18 05:21:27;;;;;;;10.75;7.47;;;;;;;16.99;88.07;101014.28;5047425;28;20053;-79
2022/05/18 05:23:53;;;;;;;9.35;7.05;;;;;;;17.02;87.82;101011.38;5042303;28;20045;-78
2022/05/18 05:26:20;;;;;;;11.68;7.50;;;;;;;17.23;86.89;101024.34;5027267;28;20080;-78
2022/05/18 05:28:47;;;;;;;9.13;7.78;;;;;;;17.36;86.51;101030.63;5041848;28;20056;-78
2022/05/18 05:31:13;;;;;;;10.32;7.57;;;;;;;17.41;85.94;101018.66;5048442;28;20106;-79
2022/05/18 05:33:41;;;;;;;8.45;7.03;;;;;;;17.58;85.63;101033.63;5039414;28;20053;-79
2022/05/18 05:36:10;;;;;;;8.52;6.53;;;;;;;17.54;85.36;101011.53;5049049;28;20056;-78
2022/05/18 05:38:37;;;;;;;12.43;7.40;;;;;;;17.82;84.87;101037.38;5038103;28;20057;-79
2022/05/18 05:41:04;;;;;;;8.10;6.43;;;;;;;17.88;82.29;101017.34;5049023;28;20068;-81
2022/05/18 05:43:32;;;;;;;11.20;7.07;;;;;;;18.15;81.38;101044.09;5046809;28;20136;-78
2022/05/18 05:46:05;;;;;;;11.43;7.10;;;;;;;18.26;80.41;101029.97;5047479;28;20103;-79
2022/05/18 05:48:33;;;;;;;10.70;6.78;;;;;;;18.43;79.20;101029.63;5045750;28;20123;-79
2022/05/18 05:51:00;;;;;;;10.38;7.38;;;;;;;18.63;78.19;101044.38;5050207;28;20111;-76
2022/05/18 05:53:28;;;;;;;12.02;7.88;;;;;;;18.74;76.34;101044.47;5051129;28;20037;-79
2022/05/18 05:56:00;;;;;;;10.68;6.88;;;;;;;18.75;76.18;101017.53;5053994;28;20064;-77
2022/05/18 05:58:26;;;;;;;9.82;7.55;;;;;;;18.97;74.91;101043.72;5044982;28;20108;-78
2022/05/18 06:00:53;;;;;;;12.27;7.20;;;;;;;19.08;74.47;101035.72;5050304;28;20076;-80
2022/05/18 06:03:20;;;;;;;10.13;7.50;;;;;;;19.20;74.00;101036.69;5050565;28;20544;-78
2022/05/18 06:05:47;;;;;;;11.80;6.78;;;;;;;19.37;73.16;101038.13;5053923;28;20137;-79
2022/05/18 06:08:13;;;;;;;12.20;7.05;;;;;;;19.54;72.54;101033.25;5061469;28;20040;-80
2022/05/18 06:10:40;;;;;;;9.25;6.63;;;;;;;19.75;71.93;101036.19;5052282;28;20045;-81
2022/05/18 06:13:08;;;;;;;12.23;6.18;;;;;;;19.96;70.80;101037.25;5053696;28;20128;-78
2022/05/18 06:15:35;;;;;;;17.02;7.25;;;;;;;20.22;69.46;101039.78;5051940;28;20063;-80
2022/05/18 06:18:03;;;;;;;10.45;6.93;;;;;;;20.43;68.09;101024.69;5052951;28;20045;-77
2022/05/18 06:20:30;;;;;;;9.15;6.03;;;;;;;20.95;65.83;101026.78;5050237;28;20095;-77
2022/05/18 06:23:08;;;;;;;11.30;6.93;;;;;;;21.60;62.60;101038.59;5046325;28;20087;-79
2022/05/18 06:25:36;;;;;;;9.95;6.22;;;;;;;22.16;60.55;101031.16;5046861;28;20052;-77
2022/05/18 06:28:04;;;;;;;9.73;6.50;;;;;;;22.71;58.38;101038.03;5042380;28;20102;-76
2022/05/18 06:30:31;;;;;;;8.43;6.43;;;;;;;23.14;55.69;101034.25;5036076;28;20149;-79
2022/05/18 06:32:57;;;;;;;10.77;6.10;;;;;;;23.69;53.90;101045.50;5049821;28;20072;-82
2022/05/18 06:35:24;;;;;;;8.38;5.40;;;;;;;24.07;53.15;101044.69;5049224;28;20075;-76
2022/05/18 06:37:51;;;;;;;9.90;5.80;;;;;;;24.31;51.41;101014.47;5047089;28;20049;-78
2022/05/18 06:40:18;;;;;;;9.25;5.18;;;;;;;24.73;50.77;101048.28;5046015;28;20045;-78
2022/05/18 06:42:45;;;;;;;10.10;5.90;;;;;;;25.10;49.73;101034.75;5044053;28;20092;-79
2022/05/18 06:45:13;;;;;;;7.75;5.57;;;;;;;25.42;48.75;101045.16;5045795;28;20072;-79
2022/05/18 06:47:40;;;;;;;9.20;6.07;;;;;;;25.70;48.11;101037.84;5025631;28;20128;-79
2022/05/18 06:50:09;;;;;;;8.35;5.78;;;;;;;25.94;46.82;101042.66;5044503;28;20195;-77
2022/05/18 06:52:36;;;;;;;7.68;5.30;;;;;;;26.05;46.83;101036.13;5035191;28;20081;-79
2022/05/18 06:55:03;;;;;;;11.07;5.70;;;;;;;26.02;46.37;101031.00;5049119;28;20037;-80
2022/05/18 06:57:29;;;;;;;7.57;4.88;;;;;;;26.15;45.68;101043.19;5052177;28;20055;-80
2022/05/18 06:59:56;;;;;;;7.88;5.40;;;;;;;26.04;45.90;101051.56;5053827;28;20053;-80
2022/05/18 07:02:23;;;;;;;10.27;5.50;;;;;;;25.70;47.11;101028.84;5052524;28;20049;-79
2022/05/18 07:04:49;;;;;;;6.88;4.80;;;;;;;25.80;45.32;101054.91;5049013;28;20057;-78
2022/05/18 07:07:17;;;;;;;7.78;5.38;;;;;;;25.82;45.22;101052.88;5041316;28;20045;-79
2022/05/18 07:09:44;;;;;;;11.15;5.30;;;;;;;25.87;44.83;101044.28;5051225;28;20060;-80
2022/05/18 07:12:11;;;;;;;6.43;4.25;;;;;;;25.88;47.61;101048.72;5047849;28;20053;-79
2022/05/18 07:14:37;;;;;;;9.10;5.25;;;;;;;26.04;45.18;101061.56;5043108;28;20107;-79
2022/05/18 07:17:04;;;;;;;12.40;5.63;;;;;;;26.27;45.07;101053.81;5050847;28;20119;-78
2022/05/18 07:19:31;;;;;;;9.93;5.30;;;;;;;26.36;44.33;101056.44;5049331;28;20103;-78
2022/05/18 07:21:58;;;;;;;10.07;5.10;;;;;;;26.43;43.92;101057.53;5050359;28;20142;-81
2022/05/18 07:24:24;;;;;;;10.35;5.25;;;;;;;26.50;44.59;101055.88;5049489;28;20072;-78
2022/05/18 07:26:51;;;;;;;8.23;5.10;;;;;;;26.70;43.35;101059.25;5049086;28;20049;-77
2022/05/18 07:29:17;;;;;;;9.80;5.55;;;;;;;26.87;43.06;101054.75;5046298;28;20426;-78
2022/05/18 07:34:30;;;;;;;9.50;5.25;;;;;;;27.05;43.37;101052.00;5046617;28;20416;-76
2022/05/18 07:36:56;;;;;;;9.45;4.85;;;;;;;27.27;42.59;101050.53;5042257;28;20142;-77
2022/05/18 07:39:23;;;;;;;10.48;4.97;;;;;;;27.42;41.87;101054.34;5049398;28;20723;-77
2022/05/18 07:41:51;;;;;;;11.57;5.40;;;;;;;27.43;43.08;101056.03;5050355;28;20052;-78
2022/05/18 07:44:18;;;;;;;7.57;4.45;;;;;;;27.34;42.01;101052.47;5050678;28;20044;-78
2022/05/18 07:46:44;;;;;;;7.03;4.35;;;;;;;27.39;41.83;101069.09;5050272;28;20091;-77
2022/05/18 07:49:11;;;;;;;6.88;4.40;;;;;;;27.30;42.06;101061.94;5049509;28;20179;-78
2022/05/18 07:51:38;;;;;;;9.32;4.60;;;;;;;27.28;42.37;101044.09;5041016;28;20136;-77
2022/05/18 07:54:04;;;;;;;7.85;4.45;;;;;;;27.44;41.29;101063.19;5047829;28;20091;-77
2022/05/18 07:56:31;;;;;;;7.30;4.18;;;;;;;27.36;41.30;101050.44;5048265;28;20124;-77
2022/05/18 07:58:58;;;;;;;8.27;4.22;;;;;;;27.40;41.58;101069.97;5050159;28;20040;-79
2022/05/18 08:01:25;;;;;;;8.60;3.92;;;;;;;27.47;42.26;101073.75;5056761;28;20118;-78
2022/05/18 08:03:52;;;;;;;8.20;4.57;;;;;;;27.61;40.71;101064.13;5048624;28;20512;-77
2022/05/18 08:06:19;;;;;;;6.35;4.10;;;;;;;27.54;40.71;101067.50;5048739;28;20053;-77
2022/05/18 08:08:45;;;;;;;7.90;4.20;;;;;;;27.26;41.29;101052.41;5045209;28;20050;-77
2022/05/18 08:16:43;;;;;;;5.93;4.13;;;;;;;27.51;40.50;101054.22;5041704;28;20056;-77
2022/05/18 08:19:12;;;;;;;5.22;3.80;;;;;;;27.72;40.86;101047.47;5047472;28;20057;-79
2022/05/18 08:21:38;;;;;;;5.13;3.72;;;;;;;27.89;40.42;101049.19;5046699;28;20052;-77
2022/05/18 08:24:06;;;;;;;6.20;3.80;;;;;;;27.79;39.65;101045.78;5043654;28;20126;-78
2022/05/18 08:26:34;;;;;;;6.30;3.30;;;;;;;27.55;38.80;101032.94;5050275;28;20138;-79
2022/05/18 08:29:04;;;;;;;7.53;3.53;;;;;;;27.86;38.72;101053.09;5049329;28;20135;-76
2022/05/18 08:31:31;;;;;;;4.43;3.10;;;;;;;28.05;38.24;101051.94;5050060;28;20092;-77
2022/05/18 08:33:57;;;;;;;5.65;3.28;;;;;;;27.80;38.64;101047.50;5047247;28;20067;-75
2022/05/18 08:36:26;;;;;;;5.82;3.45;;;;;;;27.22;39.86;101049.19;5046833;28;20098;-77
2022/05/18 08:38:54;;;;;;;6.85;3.17;;;;;;;26.95;40.42;101057.53;5032349;28;20041;-78
2022/05/18 08:41:25;;;;;;;5.68;3.65;;;;;;;26.80;40.76;101043.66;5049951;28;20048;-76
2022/05/18 08:43:59;;;;;;;7.45;3.78;;;;;;;26.85;40.91;101054.06;5051473;28;20123;-76
2022/05/18 08:47:08;;;;;;;4.32;3.42;;;;;;;26.67;42.29;101036.97;5047584;28;20137;-76
2022/05/18 08:49:54;;;;;;;7.53;3.60;;;;;;;26.90;41.24;101052.56;5046802;28;20053;-77
2022/05/18 08:52:50;;;;;;;5.88;3.00;;;;;;;26.97;41.30;101049.22;5046408;28;20115;-77
2022/05/18 08:55:17;;;;;;;6.85;3.38;;;;;;;27.10;41.71;101053.19;5037423;28;20045;-77
2022/05/18 08:57:48;;;;;;;4.10;3.08;;;;;;;27.18;40.98;101045.09;5047645;28;20106;-76
2022/05/18 09:00:18;;;;;;;5.70;3.72;;;;;;;27.54;40.18;101044.88;5048146;28;20052;-80
2022/05/18 09:02:46;;;;;;;6.57;4.20;;;;;;;27.18;40.32;101017.91;5046436;28;20072;-77
2022/05/18 09:05:24;;;;;;;6.25;3.40;;;;;;;27.37;39.83;101048.56;5048041;28;20136;-75
2022/05/18 09:08:08;;;;;;;5.10;3.50;;;;;;;27.43;40.86;101034.28;5047843;28;20057;-77
2022/05/18 09:10:44;;;;;;;4.55;3.22;;;;;;;27.23;40.17;101028.28;5047792;28;20548;-78
2022/05/18 09:13:10;;;;;;;8.65;4.10;;;;;;;27.23;40.08;101018.22;5046103;28;20095;-77
2022/05/18 09:15:49;;;;;;;4.75;3.33;;;;;;;27.33;39.48;101022.69;5037120;28;20489;-76
2022/05/18 09:18:54;;;;;;;5.43;3.30;;;;;;;27.43;39.75;101042.44;5047758;28;20077;-76
2022/05/18 09:21:36;;;;;;;6.95;3.40;;;;;;;27.33;39.79;101033.59;5046043;28;20052;-77
2022/05/18 09:24:43;;;;;;;6.30;3.10;;;;;;;26.96;41.22;101037.50;5045558;28;20052;-77
2022/05/18 09:27:24;;;;;;;4.80;3.35;;;;;;;26.88;40.68;101030.13;5040013;28;20081;-77
2022/05/18 09:30:08;;;;;;;8.57;3.95;;;;;;;26.82;40.88;101030.78;5045704;28;20068;-78
2022/05/18 09:32:59;;;;;;;4.53;3.55;;;;;;;26.77;40.29;101029.53;5050370;28;20049;-78
2022/05/18 09:35:47;;;;;;;4.65;3.20;;;;;;;26.25;40.58;101031.38;5051464;28;20047;-79
2022/05/18 09:38:38;;;;;;;3.67;3.15;;;;;;;26.21;41.31;101036.28;5047281;28;20080;-79
2022/05/18 09:41:10;;;;;;;4.63;3.15;;;;;;;26.49;40.62;101031.59;5051465;28;20098;-80
2022/05/18 09:44:01;;;;;;;5.25;3.13;;;;;;;26.69;40.69;101024.06;5043125;28;20045;-77
2022/05/18 09:46:30;;;;;;;5.75;3.13;;;;;;;26.74;40.57;101010.88;5050420;28;20048;-76
2022/05/18 09:49:19;;;;;;;5.47;3.45;;;;;;;26.81;40.74;101031.78;5043392;28;20052;-77
2022/05/18 09:51:47;;;;;;;4.27;3.13;;;;;;;26.72;39.69;101012.91;5046340;28;20481;-76
2022/05/18 09:54:20;;;;;;;3.40;3.08;;;;;;;26.83;39.25;101026.19;5042261;28;20987;-77
2022/05/18 09:56:52;;;;;;;5.45;3.15;;;;;;;26.78;39.15;101018.53;5046163;28;20103;-78
2022/05/18 09:59:28;;;;;;;4.32;2.92;;;;;;;26.76;39.32;101019.72;5053592;28;20064;-79
2022/05/18 10:07:38;;;;;;;4.43;2.60;;;;;;;27.24;37.89;101010.94;5046772;28;20079;-81
2022/05/18 10:10:21;;;;;;;11.77;2.92;;;;;;;27.33;37.92;101001.81;5056945;28;20131;-81
2022/05/18 10:12:59;;;;;;;6.13;2.72;;;;;;;27.45;37.91;101011.34;5040870;28;20455;-81
2022/05/18 10:15:46;;;;;;;3.45;2.45;;;;;;;27.58;35.69;101006.28;5042356;28;20091;-80
2022/05/18 10:18:29;;;;;;;3.40;2.22;;;;;;;27.45;35.24;100986.88;5047606;28;20049;-79
2022/05/18 10:21:13;;;;;;;3.38;1.90;;;;;;;27.52;35.53;101004.22;5048199;28;20115;-79
2022/05/18 10:24:23;;;;;;;3.25;2.17;;;;;;;27.58;36.55;101000.00;5044827;28;20143;-79
2022/05/18 10:27:15;;;;;;;3.97;2.38;;;;;;;27.35;36.75;101007.06;5044237;28;20394;-77
2022/05/18 10:30:02;;;;;;;4.55;2.10;;;;;;;27.43;35.17;100999.78;5044426;28;20137;-78
2022/05/18 10:32:31;;;;;;;2.22;2.13;;;;;;;27.41;35.87;100988.22;5041444;28;20452;-77
2022/05/18 10:35:00;;;;;;;7.07;3.58;;;;;;;27.67;35.41;100999.00;5040204;28;20128;-77
2022/05/18 10:37:30;;;;;;;3.03;2.17;;;;;;;27.80;35.17;100984.91;5047666;28;20079;-79
2022/05/18 10:40:05;;;;;;;3.80;2.22;;;;;;;28.06;34.10;101004.63;5037021;28;20045;-77
2022/05/18 10:42:47;;;;;;;3.50;2.08;;;;;;;28.12;34.18;100993.06;5049042;28;20547;-78
2022/05/18 10:45:26;;;;;;;4.55;2.40;;;;;;;28.01;35.21;100996.16;5047014;28;20064;-78
2022/05/18 10:47:56;;;;;;;4.85;2.00;;;;;;;27.70;35.11;100982.34;5042638;28;20045;-77
2022/05/18 10:50:25;;;;;;;;;;;;;;;27.76;34.75;100991.69;5048536;28;20064;-77
2022/05/18 10:52:58;;;;;;;4.00;2.60;;;;;;;27.84;34.90;100994.44;5049575;28;19921;-76
2022/05/18 10:55:28;;;;;;;2.88;2.00;;;;;;;28.04;34.22;100987.63;5047641;28;20055;-77
2022/05/18 10:58:09;;;;;;;6.03;2.20;;;;;;;28.17;33.33;100966.19;5048889;28;20362;-76
2022/05/18 11:00:47;;;;;;;3.55;1.80;;;;;;;28.24;33.08;100953.59;5043523;28;20500;-75
2022/05/18 11:03:27;;;;;;;2.97;1.90;;;;;;;28.40;33.03;100970.94;5047196;28;20087;-77
2022/05/18 11:06:02;;;;;;;3.17;2.05;;;;;;;28.41;33.58;100975.34;5044079;28;20059;-78
2022/05/18 11:08:31;;;;;;;3.33;2.17;;;;;;;28.43;34.21;100965.13;5047894;28;20135;-77
2022/05/18 11:11:16;;;;;;;2.92;2.15;;;;;;;28.35;34.04;100943.34;5049595;28;20481;-77
2022/05/18 11:14:20;;;;;;;3.22;2.30;;;;;;;28.58;33.77;100961.53;5046382;28;20068;-77
2022/05/18 11:16:47;;;;;;;5.13;2.40;;;;;;;28.63;33.57;100955.56;5043321;28;20096;-78
2022/05/18 11:19:21;;;;;;;4.00;1.95;;;;;;;28.71;33.06;100946.47;5046167;28;20468;-79
2022/05/18 11:21:56;;;;;;;3.88;2.03;;;;;;;28.56;32.48;100919.13;5042040;28;20057;-77
2022/05/18 11:24:41;;;;;;;4.78;2.00;;;;;;;28.68;32.76;100935.94;5045382;28;20528;-77
2022/05/18 11:27:41;;;;;;;3.40;2.60;;;;;;;28.84;33.01;100952.25;5048123;28;20093;-77
2022/05/18 11:30:11;;;;;;;4.78;3.30;;;;;;;28.83;32.62;100924.13;5047477;28;20126;-77
2022/05/18 11:32:46;;;;;;;3.17;2.28;;;;;;;29.04;32.59;100947.22;5049271;28;20121;-77
2022/05/18 11:35:21;;;;;;;5.40;2.00;;;;;;;29.00;34.08;100921.31;5038918;28;20069;-79
2022/05/18 11:38:12;;;;;;;2.25;2.05;;;;;;;28.66;33.48;100929.78;5036793;28;20049;-78
2022/05/18 11:41:18;;;;;;;2.42;2.00;;;;;;;28.82;32.18;100933.34;5033458;28;20358;-78
2022/05/18 11:43:47;;;;;;;3.88;1.90;;;;;;;28.85;32.48;100934.88;4980383;28;20498;-78
2022/05/18 11:46:23;;;;;;;2.15;1.45;;;;;;;28.86;32.37;100926.50;5047184;28;20049;-80
2022/05/18 11:49:15;;;;;;;5.03;1.92;;;;;;;29.01;33.24;100936.66;5050038;28;20057;-78
2022/05/18 11:52:12;;;;;;;3.72;1.92;;;;;;;29.00;31.93;100922.19;5037765;28;20138;-80
2022/05/18 11:55:03;;;;;;;2.92;1.88;;;;;;;29.11;32.50;100926.41;5019458;28;20623;-79
2022/05/18 11:57:55;;;;;;;3.63;2.10;;;;;;;29.02;32.80;100931.03;5043248;28;20115;-78
2022/05/18 12:00:56;;;;;;;2.70;1.88;;;;;;;29.27;32.28;100924.41;5049079;28;20068;-77
2022/05/18 12:03:49;;;;;;;3.60;2.40;;;;;;;29.00;32.98;100924.91;5044639;28;20037;-78